Salliquelo, Argentina
Current Conditions -  °F | °C
As of 10:00 PM on Saturday 20 Dec 2014 (Local Time) from SAOC Reporting Station
Broken Clouds Broken Clouds  
Wind Chill: 64°   Ceiling: 10000
Heat Index: 64°   Visibility: 6mi
Dew Point: 37°   Wind: 25mph
Humidity: 37%   Direction: 160°SSE
Pressure: 29.83"   Gusts: 37mph
Location:  36.75°S, 62.93°W
Report Text: SAOC 210100Z 16022G32KT 9999 SCT030 BKN100 18/03 Q1010
Loading
Personal Weather Stations






























Interactive Weather Map New forecast layout! Learn more

10-Day Weather Forecast

Advertisements
Track Severe Weather on mobile